Basye, VA

03:53 AM EST 2014 azaroa ren 24 an (GMT -0500)
Bryce - Lake Laura | Change Station
CLOSE
Current Station
Personal Weather Stations
Location: Basye, VA
Elevation: 1401 ft
Nearby Weather Stations

Elev 1401 ft 38.80 °N, 78.79 °W | Updated 35 seconds ago

Estalia
Estalia
53.2 °F
Feels Like 53.2 °F
N
2.7
Haizea Aldagarria Haizea from HHE

Gaur
High -- | Low -- °F
--% Chance of Precip.
Yesterday
High -- | Low -- °F
Precip. -- in
7:07 AM 4:56 PM
Waxing Crescent, 4% visible
Presioa 29.62 in
Ikusgaitasuna 10.0 Miliak
Clouds Dispertsaturik hodeiak 2600 ft
Goraki estalia 3300 ft
Estalia 4200 ft
Ihintzaren maila 53 °F
Afoinua 99%
Rainfall 0.13 in
Snow Depth Not available.
UV 0 out of 12
Pollen .10 out of 12
Air Quality Not available.
Flu Activity Not available.
METAR KLUA 240835Z AUTO 20006KT 10SM SCT026 BKN033 OVC042 15/15 A2962 RMK AO2

More Conditions Fewer Conditions

Presioa 29.62 in
Ikusgaitasuna 10.0 Miliak
Clouds Dispertsaturik hodeiak 2600 ft
Goraki estalia 3300 ft
Estalia 4200 ft
Ihintzaren maila 53 °F
Afoinua 99%
Rainfall 0.13 in
Snow Depth Not available.
UV 0 out of 12
Pollen .10 out of 12
Air Quality Not available.
Flu Activity Not available.
METAR KLUA 240835Z AUTO 20006KT 10SM SCT026 BKN033 OVC042 15/15 A2962 RMK AO2

More Conditions Fewer Conditions

10-Day Weather Forecast

Almanac

Astronomy

Nov. 24, 2014 Rise Set
Actual Time
Civil Twilight
Nautical Twilight
Astronomical Twilight
Moon
Length Of Visible Light
Length of Day
Tomorrow will be .
, % of the Moon is Illuminated

Today's Extremes

State Highs State Lows

Community

WunderPhotos

Upload Photos

1,773,295 photos uploaded!

WunderBlogs® & News

Nearby

Air Quality

  Air Quality AQ Index Pollutant
Not available.

Snow Depth

Station Depth Elevation

Earthquake Activity

City Distance Mag. Time & Date
Minimum magnitude displayed is 2.5.

Coastal Water Temperatures

Lekua Tenperatura

Nearby Weather Stations